Time;durP1;ratioP1;P1;durP2;ratioP2;P2;SDS_P1;SDS_P2;PMS_P1;PMS_P2;Temp;Humidity;BMP_temperature;BMP_pressure;BME280_temperature;BME280_humidity;BME280_pressure;Samples;Min_cycle;Max_cycle;Signal;HPM_P1;HPM_P2
2023/01/23 00:02:20;;;;;;;304.80;68.93;;;;;;;;;;5117922;27;20204;-73
2023/01/23 00:04:48;;;;;;;305.75;69.57;;;;;;;;;;5118068;27;20216;-73
2023/01/23 00:07:15;;;;;;;298.77;67.22;;;;;;;;;;5118347;27;20311;-73
2023/01/23 00:09:42;;;;;;;305.98;68.35;;;;;;;;;;5118451;27;20267;-72
2023/01/23 00:12:08;;;;;;;311.33;68.75;;;;;;;;;;5117458;27;20216;-73
2023/01/23 00:14:35;;;;;;;313.75;69.97;;;;;;;;;;5118531;27;20597;-73
2023/01/23 00:17:02;;;;;;;298.33;65.85;;;;;;;;;;5118599;27;20261;-73
2023/01/23 00:19:29;;;;;;;300.10;65.90;;;;;;;;;;5117706;27;20277;-73
2023/01/23 00:21:59;;;;;;;298.77;65.18;;;;;;;;;;5117549;27;20593;-73
2023/01/23 00:24:26;;;;;;;295.42;65.18;;;;;;;;;;5117906;27;20274;-73
2023/01/23 00:26:53;;;;;;;298.15;66.57;;;;;;;;;;5117758;27;20286;-73
2023/01/23 00:29:20;;;;;;;308.63;66.97;;;;;;;;;;5118207;27;20208;-73
2023/01/23 00:31:47;;;;;;;296.58;67.32;;;;;;;;;;5117221;27;20212;-73
2023/01/23 00:34:14;;;;;;;304.83;70.32;;;;;;;;;;5117262;27;20205;-73
2023/01/23 00:36:42;;;;;;;303.30;66.72;;;;;;;;;;5117167;27;20588;-73
2023/01/23 00:39:12;;;;;;;307.08;68.88;;;;;;;;;;5118270;27;20208;-74
2023/01/23 00:41:39;;;;;;;312.48;70.38;;;;;;;;;;5118419;27;20204;-74
2023/01/23 00:44:06;;;;;;;299.58;67.15;;;;;;;;;;5117474;27;20576;-74
2023/01/23 00:46:33;;;;;;;306.70;68.18;;;;;;;;;;5116723;27;20224;-73
2023/01/23 00:49:00;;;;;;;295.67;65.93;;;;;;;;;;5117766;27;20209;-73
2023/01/23 00:51:27;;;;;;;303.85;66.35;;;;;;;;;;5117162;27;20661;-73
2023/01/23 00:53:54;;;;;;;299.45;68.60;;;;;;;;;;5117196;27;20216;-73
2023/01/23 00:56:21;;;;;;;300.52;65.95;;;;;;;;;;5117316;27;20489;-73
2023/01/23 00:58:48;;;;;;;304.95;67.82;;;;;;;;;;5117302;27;20201;-73
2023/01/23 01:01:15;;;;;;;292.90;66.25;;;;;;;;;;5117119;27;20311;-73
2023/01/23 01:03:42;;;;;;;304.30;69.70;;;;;;;;;;5117186;27;20205;-73
2023/01/23 01:06:10;;;;;;;292.52;65.90;;;;;;;;;;5116862;27;20217;-73
2023/01/23 01:08:36;;;;;;;304.00;67.53;;;;;;;;;;5121536;27;20205;-73
2023/01/23 01:11:04;;;;;;;289.83;64.35;;;;;;;;;;5120428;27;20521;-73
2023/01/23 01:13:31;;;;;;;296.50;67.03;;;;;;;;;;5120553;27;20205;-74
2023/01/23 01:16:00;;;;;;;300.98;66.28;;;;;;;;;;5120579;27;20209;-73
2023/01/23 01:18:40;;;;;;;302.38;67.55;;;;;;;;;;5121116;27;20292;-73
2023/01/23 01:21:07;;;;;;;304.52;66.75;;;;;;;;;;5120605;27;20672;-73
2023/01/23 01:23:35;;;;;;;293.73;66.07;;;;;;;;;;5120423;27;20219;-73
2023/01/23 01:26:02;;;;;;;294.13;65.57;;;;;;;;;;5120240;27;20231;-73
2023/01/23 01:28:29;;;;;;;304.95;66.97;;;;;;;;;;5119845;27;20215;-73
2023/01/23 01:30:57;;;;;;;293.00;65.05;;;;;;;;;;5119923;27;20300;-73
2023/01/23 01:33:24;;;;;;;299.70;68.85;;;;;;;;;;5120821;27;20208;-73
2023/01/23 01:35:51;;;;;;;304.40;68.13;;;;;;;;;;5119805;27;20296;-73
2023/01/23 01:38:18;;;;;;;306.73;66.40;;;;;;;;;;5120203;27;20209;-73
2023/01/23 01:40:45;;;;;;;306.40;68.82;;;;;;;;;;5120050;27;20215;-73
2023/01/23 01:43:20;;;;;;;309.23;67.18;;;;;;;;;;5115774;27;20621;-73
2023/01/23 01:46:15;;;;;;;293.67;65.95;;;;;;;;;;5115832;27;20212;-71
2023/01/23 01:48:45;;;;;;;302.50;68.15;;;;;;;;;;5080927;28;20193;-72
2023/01/23 01:51:18;;;;;;;306.88;67.97;;;;;;;;;;5120028;27;20267;-72
2023/01/23 01:53:56;;;;;;;304.30;69.72;;;;;;;;;;5115572;27;20471;-72
2023/01/23 01:56:25;;;;;;;298.45;66.22;;;;;;;;;;5120250;27;20215;-72
2023/01/23 01:59:01;;;;;;;308.05;67.72;;;;;;;;;;5119021;27;20665;-72
2023/01/23 02:01:29;;;;;;;309.42;68.90;;;;;;;;;;5119662;27;20283;-71
2023/01/23 02:03:57;;;;;;;308.95;68.30;;;;;;;;;;5117773;28;20208;-73
2023/01/23 02:06:24;;;;;;;307.58;66.07;;;;;;;;;;5113322;27;20283;-73
2023/01/23 02:08:53;;;;;;;298.38;66.00;;;;;;;;;;5099533;28;20233;-73
2023/01/23 02:11:20;;;;;;;307.45;67.75;;;;;;;;;;5099684;28;20443;-73
2023/01/23 02:13:47;;;;;;;313.38;71.28;;;;;;;;;;5099285;28;20271;-73
2023/01/23 02:16:17;;;;;;;298.33;66.13;;;;;;;;;;5100472;28;20211;-73
2023/01/23 02:18:48;;;;;;;314.88;70.20;;;;;;;;;;5098762;28;20204;-73
2023/01/23 02:21:17;;;;;;;314.40;67.75;;;;;;;;;;5104006;27;20204;-73
2023/01/23 02:23:51;;;;;;;312.73;68.35;;;;;;;;;;5119545;27;20220;-73
2023/01/23 02:26:20;;;;;;;311.10;67.70;;;;;;;;;;5119756;27;20554;-73
2023/01/23 02:28:47;;;;;;;312.15;70.78;;;;;;;;;;5119758;27;20212;-73
2023/01/23 02:31:15;;;;;;;305.58;67.55;;;;;;;;;;5119364;27;20205;-73
2023/01/23 02:33:52;;;;;;;307.20;66.88;;;;;;;;;;5118921;27;20205;-73
2023/01/23 02:36:19;;;;;;;300.23;68.43;;;;;;;;;;5119534;27;20232;-73
2023/01/23 02:38:51;;;;;;;302.73;66.75;;;;;;;;;;5116873;27;20543;-73
2023/01/23 02:41:21;;;;;;;303.00;66.10;;;;;;;;;;5119375;27;20215;-73
2023/01/23 02:43:49;;;;;;;308.35;68.57;;;;;;;;;;5119744;27;20212;-73
2023/01/23 02:46:17;;;;;;;309.83;69.78;;;;;;;;;;5118482;27;20217;-73
2023/01/23 02:48:44;;;;;;;305.40;66.95;;;;;;;;;;5119628;27;20216;-73
2023/01/23 02:51:12;;;;;;;312.75;70.57;;;;;;;;;;5118588;27;20592;-73
2023/01/23 02:53:41;;;;;;;304.50;66.20;;;;;;;;;;5118570;27;20299;-73
2023/01/23 02:56:08;;;;;;;312.50;69.38;;;;;;;;;;5119298;27;20500;-74
2023/01/23 03:01:20;;;;;;;313.42;68.25;;;;;;;;;;5118451;27;20195;-73
2023/01/23 03:03:50;;;;;;;309.95;68.28;;;;;;;;;;5118876;27;20208;-73
2023/01/23 03:06:17;;;;;;;304.83;66.85;;;;;;;;;;5118404;27;20288;-73
2023/01/23 03:08:46;;;;;;;306.23;68.00;;;;;;;;;;5119164;27;20201;-74
2023/01/23 03:11:14;;;;;;;304.85;66.60;;;;;;;;;;5118607;27;20216;-73
2023/01/23 03:13:41;;;;;;;304.35;67.75;;;;;;;;;;5105014;28;20224;-74
2023/01/23 03:16:08;;;;;;;299.65;66.22;;;;;;;;;;5097437;28;20216;-74
2023/01/23 03:18:35;;;;;;;303.23;67.63;;;;;;;;;;5104147;28;20209;-74
2023/01/23 03:21:02;;;;;;;302.45;67.10;;;;;;;;;;5108256;27;20194;-74
2023/01/23 03:23:29;;;;;;;310.23;67.85;;;;;;;;;;5102490;27;20601;-72
2023/01/23 03:25:57;;;;;;;310.88;68.80;;;;;;;;;;5098832;28;20225;-73
2023/01/23 03:31:10;;;;;;;310.77;67.95;;;;;;;;;;5096687;28;20204;-73
2023/01/23 03:33:38;;;;;;;306.30;68.05;;;;;;;;;;5097420;28;20229;-73
2023/01/23 03:36:05;;;;;;;308.08;66.53;;;;;;;;;;5098134;28;20292;-73
2023/01/23 03:38:32;;;;;;;308.65;68.80;;;;;;;;;;5098182;28;20205;-73
2023/01/23 03:43:43;;;;;;;302.40;67.57;;;;;;;;;;5097578;28;20523;-73
2023/01/23 03:46:11;;;;;;;312.63;70.20;;;;;;;;;;5102259;27;20212;-73
2023/01/23 03:48:38;;;;;;;308.90;68.95;;;;;;;;;;5117349;27;20208;-73
2023/01/23 03:51:06;;;;;;;306.33;65.35;;;;;;;;;;5117843;27;20212;-73
2023/01/23 03:53:33;;;;;;;313.20;70.15;;;;;;;;;;5113701;28;20209;-73
2023/01/23 03:56:01;;;;;;;304.73;67.97;;;;;;;;;;5114718;27;20251;-73
2023/01/23 03:58:29;;;;;;;312.15;68.65;;;;;;;;;;5114550;27;20262;-72
2023/01/23 04:00:56;;;;;;;310.45;68.97;;;;;;;;;;5117454;27;20548;-73
2023/01/23 04:03:27;;;;;;;309.13;67.70;;;;;;;;;;5115732;27;20196;-73
2023/01/23 04:05:56;;;;;;;311.35;72.88;;;;;;;;;;5112830;27;20393;-73
2023/01/23 04:08:23;;;;;;;311.48;68.00;;;;;;;;;;5117203;27;20223;-73
2023/01/23 04:10:50;;;;;;;314.42;69.88;;;;;;;;;;5116906;27;20208;-73
2023/01/23 04:13:17;;;;;;;317.02;75.88;;;;;;;;;;5116879;27;20225;-73
2023/01/23 04:15:48;;;;;;;314.50;70.00;;;;;;;;;;5110860;27;20204;-73
2023/01/23 04:18:17;;;;;;;307.10;71.32;;;;;;;;;;5115616;28;20205;-73
2023/01/23 04:20:51;;;;;;;312.33;72.43;;;;;;;;;;5115440;28;20201;-73
2023/01/23 04:23:23;;;;;;;315.30;72.22;;;;;;;;;;5115914;28;20219;-73
2023/01/23 04:25:51;;;;;;;316.70;71.07;;;;;;;;;;5109400;28;20308;-74
2023/01/23 04:28:18;;;;;;;317.38;71.30;;;;;;;;;;5096610;28;20233;-73
2023/01/23 04:30:47;;;;;;;312.67;67.57;;;;;;;;;;5108034;28;20200;-72
2023/01/23 04:33:15;;;;;;;305.15;66.00;;;;;;;;;;5115726;28;20244;-73
2023/01/23 04:35:48;;;;;;;306.73;67.85;;;;;;;;;;5119018;27;20200;-73
2023/01/23 04:38:16;;;;;;;311.48;71.43;;;;;;;;;;5117454;27;20510;-73
2023/01/23 04:40:47;;;;;;;309.85;66.78;;;;;;;;;;5112853;28;20217;-73
2023/01/23 04:43:14;;;;;;;317.42;72.05;;;;;;;;;;5117559;27;20240;-73
2023/01/23 04:45:43;;;;;;;314.92;71.25;;;;;;;;;;5115653;28;20260;-74
2023/01/23 04:48:11;;;;;;;306.98;66.03;;;;;;;;;;5117237;27;20216;-74
2023/01/23 04:50:39;;;;;;;307.98;66.88;;;;;;;;;;5112375;27;20728;-73
2023/01/23 04:53:06;;;;;;;313.52;70.40;;;;;;;;;;5117195;27;20675;-73
2023/01/23 04:55:33;;;;;;;315.17;71.85;;;;;;;;;;5102677;27;20213;-73
2023/01/23 04:58:01;;;;;;;303.70;66.18;;;;;;;;;;5096221;28;20604;-73
2023/01/23 05:00:39;;;;;;;312.83;69.70;;;;;;;;;;5114800;27;20589;-72
2023/01/23 05:03:09;;;;;;;315.75;68.95;;;;;;;;;;5116231;27;20212;-72
2023/01/23 05:05:43;;;;;;;306.75;68.15;;;;;;;;;;5116458;27;20217;-72
2023/01/23 05:08:18;;;;;;;312.60;70.20;;;;;;;;;;5116249;28;20296;-73
2023/01/23 05:10:45;;;;;;;308.85;67.80;;;;;;;;;;5116440;28;20204;-73
2023/01/23 05:13:12;;;;;;;313.98;68.55;;;;;;;;;;5096451;28;20606;-73
2023/01/23 05:15:39;;;;;;;310.58;72.57;;;;;;;;;;5095888;28;20307;-72
2023/01/23 05:18:06;;;;;;;312.88;67.53;;;;;;;;;;5107830;28;20244;-72
2023/01/23 05:20:33;;;;;;;314.90;70.25;;;;;;;;;;5117188;27;20205;-73
2023/01/23 05:23:06;;;;;;;308.40;68.00;;;;;;;;;;5117064;27;20265;-73
2023/01/23 05:25:33;;;;;;;310.83;67.43;;;;;;;;;;5102597;28;20310;-72
2023/01/23 05:28:00;;;;;;;315.92;71.18;;;;;;;;;;5096199;28;20206;-72
2023/01/23 05:30:28;;;;;;;312.77;68.75;;;;;;;;;;5096047;28;20198;-72
2023/01/23 05:32:55;;;;;;;315.42;69.63;;;;;;;;;;5096081;28;20300;-74
2023/01/23 05:35:21;;;;;;;306.05;67.47;;;;;;;;;;5109000;27;20208;-74
2023/01/23 05:37:49;;;;;;;319.35;71.15;;;;;;;;;;5115922;27;20234;-73
2023/01/23 05:40:16;;;;;;;311.65;68.00;;;;;;;;;;5116329;27;20213;-73
2023/01/23 05:42:43;;;;;;;312.80;69.93;;;;;;;;;;5099532;28;20197;-73
2023/01/23 05:45:12;;;;;;;319.02;72.75;;;;;;;;;;5096885;28;20455;-74
2023/01/23 05:47:39;;;;;;;313.75;68.43;;;;;;;;;;5115838;27;20624;-73
2023/01/23 05:50:10;;;;;;;313.48;70.03;;;;;;;;;;5107361;27;20194;-72
2023/01/23 05:52:37;;;;;;;325.25;71.63;;;;;;;;;;5098038;28;20206;-73
2023/01/23 05:55:04;;;;;;;321.20;70.10;;;;;;;;;;5099337;28;20212;-72
2023/01/23 05:57:31;;;;;;;312.65;68.72;;;;;;;;;;5105162;27;20201;-73
2023/01/23 05:59:57;;;;;;;312.45;69.00;;;;;;;;;;5118492;27;20212;-73
2023/01/23 06:02:25;;;;;;;313.52;70.60;;;;;;;;;;5098169;28;20210;-72
2023/01/23 06:04:52;;;;;;;305.20;68.78;;;;;;;;;;5105042;28;20658;-72
2023/01/23 06:07:19;;;;;;;318.23;73.05;;;;;;;;;;5118145;27;20236;-74
2023/01/23 06:09:47;;;;;;;316.38;70.28;;;;;;;;;;5118312;27;20213;-73
2023/01/23 06:12:13;;;;;;;315.80;68.90;;;;;;;;;;5118296;27;20261;-73
2023/01/23 06:14:40;;;;;;;311.40;68.25;;;;;;;;;;5115225;27;20261;-73
2023/01/23 06:17:08;;;;;;;315.38;68.88;;;;;;;;;;5115344;27;20608;-74
2023/01/23 06:19:35;;;;;;;312.23;71.88;;;;;;;;;;5112249;28;20213;-73
2023/01/23 06:22:02;;;;;;;311.88;71.00;;;;;;;;;;5108147;27;20262;-74
2023/01/23 06:24:30;;;;;;;315.02;69.93;;;;;;;;;;5110011;27;20584;-74
2023/01/23 06:26:57;;;;;;;316.83;72.60;;;;;;;;;;5116524;27;20650;-73
2023/01/23 06:29:24;;;;;;;321.02;71.78;;;;;;;;;;5117477;27;20208;-73
2023/01/23 06:31:51;;;;;;;323.73;73.25;;;;;;;;;;5114281;27;20726;-73
2023/01/23 06:34:23;;;;;;;318.95;71.22;;;;;;;;;;5109862;28;20198;-73
2023/01/23 06:36:50;;;;;;;317.75;72.28;;;;;;;;;;5115758;27;20200;-73
2023/01/23 06:39:17;;;;;;;315.05;72.20;;;;;;;;;;5111652;27;20202;-73
2023/01/23 06:41:44;;;;;;;316.67;72.72;;;;;;;;;;5100938;28;20204;-73
2023/01/23 06:44:11;;;;;;;310.88;69.68;;;;;;;;;;5100031;28;20454;-73
2023/01/23 06:46:38;;;;;;;314.77;75.53;;;;;;;;;;5115078;27;20232;-73
2023/01/23 06:49:06;;;;;;;322.23;73.05;;;;;;;;;;5114918;27;20224;-73
2023/01/23 06:51:33;;;;;;;321.30;76.13;;;;;;;;;;5115035;27;20218;-73
2023/01/23 06:54:04;;;;;;;305.10;69.30;;;;;;;;;;5099815;28;20237;-72
2023/01/23 06:56:35;;;;;;;305.45;66.75;;;;;;;;;;5113290;28;20596;-74
2023/01/23 06:59:14;;;;;;;313.95;71.97;;;;;;;;;;5113813;28;20205;-74
2023/01/23 07:01:42;;;;;;;310.50;68.97;;;;;;;;;;5112729;27;20739;-73
2023/01/23 07:04:09;;;;;;;323.23;72.57;;;;;;;;;;5115525;27;20205;-73
2023/01/23 07:06:38;;;;;;;315.05;72.50;;;;;;;;;;5098148;28;20226;-73
2023/01/23 07:09:07;;;;;;;331.10;75.20;;;;;;;;;;5114582;27;20218;-73
2023/01/23 07:11:35;;;;;;;314.85;70.28;;;;;;;;;;5114447;27;20207;-73
2023/01/23 07:14:02;;;;;;;315.17;70.32;;;;;;;;;;5100091;28;20200;-73
2023/01/23 07:16:29;;;;;;;314.45;71.63;;;;;;;;;;5111000;28;20671;-73
2023/01/23 07:18:58;;;;;;;314.75;72.07;;;;;;;;;;5116645;27;20730;-74
2023/01/23 07:21:25;;;;;;;320.73;73.15;;;;;;;;;;5115770;27;20616;-73
2023/01/23 07:23:52;;;;;;;305.75;69.63;;;;;;;;;;5113691;27;20227;-73
2023/01/23 07:26:20;;;;;;;311.38;76.10;;;;;;;;;;5109092;27;20224;-73
2023/01/23 07:28:46;;;;;;;302.15;68.82;;;;;;;;;;5115869;27;20446;-73
2023/01/23 07:31:13;;;;;;;313.20;71.22;;;;;;;;;;5116054;27;20209;-73
2023/01/23 07:33:41;;;;;;;309.50;72.95;;;;;;;;;;5115837;28;20193;-73
2023/01/23 07:36:09;;;;;;;316.92;76.80;;;;;;;;;;5097062;28;20469;-73
2023/01/23 07:38:36;;;;;;;302.08;68.13;;;;;;;;;;5095732;28;20219;-74
2023/01/23 07:41:02;;;;;;;318.13;75.30;;;;;;;;;;5094803;28;20205;-74
2023/01/23 07:43:35;;;;;;;310.85;74.35;;;;;;;;;;5104736;27;20211;-74
2023/01/23 07:46:02;;;;;;;316.80;72.70;;;;;;;;;;5109649;28;20224;-73
2023/01/23 07:48:29;;;;;;;317.52;74.70;;;;;;;;;;5115618;28;20287;-73
2023/01/23 07:50:58;;;;;;;306.90;69.70;;;;;;;;;;5114051;27;20208;-73
2023/01/23 07:53:26;;;;;;;308.00;68.78;;;;;;;;;;5114480;27;20205;-73
2023/01/23 07:55:53;;;;;;;311.45;74.13;;;;;;;;;;5110548;27;20273;-73
2023/01/23 07:58:21;;;;;;;318.15;74.80;;;;;;;;;;5115246;27;20212;-74
2023/01/23 08:01:10;;;;;;;318.10;75.05;;;;;;;;;;5114474;27;20215;-73
2023/01/23 08:03:40;;;;;;;309.45;75.20;;;;;;;;;;5108871;27;20209;-74
2023/01/23 08:06:08;;;;;;;321.90;74.32;;;;;;;;;;5111486;27;20224;-74
2023/01/23 08:08:35;;;;;;;312.23;70.85;;;;;;;;;;5110157;27;20231;-74
2023/01/23 08:11:03;;;;;;;319.83;77.93;;;;;;;;;;5107607;28;20201;-73
2023/01/23 08:13:36;;;;;;;321.15;72.57;;;;;;;;;;5107381;27;20250;-73
2023/01/23 08:16:10;;;;;;;318.10;75.13;;;;;;;;;;5100286;28;20244;-72
2023/01/23 08:21:58;;;;;;;320.65;73.82;;;;;;;;;;5104057;27;21347;-73
2023/01/23 08:24:52;;;;;;;315.58;71.05;;;;;;;;;;5096077;27;20504;-72
2023/01/23 08:27:19;;;;;;;321.27;77.47;;;;;;;;;;5100460;27;20233;-72
2023/01/23 08:29:46;;;;;;;321.45;77.97;;;;;;;;;;5108327;27;20243;-74
2023/01/23 08:32:20;;;;;;;321.38;74.65;;;;;;;;;;5107677;27;20250;-72
2023/01/23 08:34:49;;;;;;;321.23;75.57;;;;;;;;;;5101311;27;20201;-73
2023/01/23 08:37:24;;;;;;;322.55;78.05;;;;;;;;;;5104079;28;20197;-72
2023/01/23 08:40:09;;;;;;;330.48;79.05;;;;;;;;;;5107548;28;20239;-73
2023/01/23 08:42:36;;;;;;;314.60;77.68;;;;;;;;;;5111968;27;20212;-73
2023/01/23 08:45:04;;;;;;;329.45;79.65;;;;;;;;;;5107819;28;20217;-73
2023/01/23 08:47:35;;;;;;;323.90;76.55;;;;;;;;;;5109803;27;20277;-73
2023/01/23 08:50:17;;;;;;;320.27;77.88;;;;;;;;;;5106162;27;20263;-72
2023/01/23 08:52:58;;;;;;;323.70;78.40;;;;;;;;;;5105573;27;20254;-73
2023/01/23 08:55:27;;;;;;;327.10;79.63;;;;;;;;;;5107109;28;20595;-73
2023/01/23 09:00:52;;;;;;;318.20;74.05;;;;;;;;;;5087936;28;20202;-73
2023/01/23 09:03:21;;;;;;;326.13;77.15;;;;;;;;;;5114218;27;20238;-73
2023/01/23 09:05:49;;;;;;;326.80;77.70;;;;;;;;;;5110852;27;20790;-73
2023/01/23 09:08:16;;;;;;;313.92;73.13;;;;;;;;;;5112968;27;20576;-72
2023/01/23 09:10:45;;;;;;;324.83;81.07;;;;;;;;;;5097993;28;20351;-73
2023/01/23 10:01:06;;;;;;;329.75;78.82;;;;;;;;;;5023443;28;20277;-75
2023/01/23 10:04:20;;;;;;;334.60;83.82;;;;;;;;;;5038445;28;20238;-73
2023/01/23 10:10:11;;;;;;;329.00;81.30;;;;;;;;;;5034292;28;20478;-75
2023/01/23 10:22:16;;;;;;;325.92;78.65;;;;;;;;;;5046929;28;20206;-74
2023/01/23 10:34:23;;;;;;;327.55;78.30;;;;;;;;;;5051291;28;20621;-74
2023/01/23 10:37:01;;;;;;;339.08;88.47;;;;;;;;;;5049679;28;20202;-73
2023/01/23 10:42:33;;;;;;;360.98;93.75;;;;;;;;;;5040945;28;20207;-74
2023/01/23 10:45:04;;;;;;;337.65;85.82;;;;;;;;;;5036537;28;20709;-73
2023/01/23 10:48:10;;;;;;;336.92;84.10;;;;;;;;;;5043068;28;20237;-74
2023/01/23 11:11:59;;;;;;;346.13;84.47;;;;;;;;;;5051459;28;20649;-73
2023/01/23 11:18:03;;;;;;;344.52;83.35;;;;;;;;;;5019945;28;20203;-73
2023/01/23 11:26:54;;;;;;;342.65;86.88;;;;;;;;;;5037896;28;20329;-74
2023/01/23 11:30:08;;;;;;;330.75;82.50;;;;;;;;;;5038678;28;20195;-74
2023/01/23 11:39:23;;;;;;;342.65;85.65;;;;;;;;;;5054274;28;20314;-73
2023/01/23 12:28:46;;;;;;;317.02;75.78;;;;;;;;;;5050825;28;20623;-73
2023/01/23 13:08:06;;;;;;;323.77;80.53;;;;;;;;;;5019602;28;20339;-74
2023/01/23 13:14:11;;;;;;;316.42;75.72;;;;;;;;;;5037437;28;20214;-74
2023/01/23 13:23:20;;;;;;;327.13;81.32;;;;;;;;;;5014485;28;20747;-74
2023/01/23 13:29:47;;;;;;;326.13;80.80;;;;;;;;;;4990083;28;20235;-73
2023/01/23 13:36:19;;;;;;;316.15;77.50;;;;;;;;;;5035943;28;20192;-74
2023/01/23 13:42:00;;;;;;;342.05;88.60;;;;;;;;;;5051517;28;20738;-74
2023/01/23 14:36:34;;;;;;;310.90;72.38;;;;;;;;;;5012402;28;20247;-74
2023/01/23 14:39:04;;;;;;;323.05;76.72;;;;;;;;;;5015865;28;20492;-73
2023/01/23 14:41:35;;;;;;;329.63;82.00;;;;;;;;;;5019881;28;20775;-74
2023/01/23 14:44:04;;;;;;;326.55;83.97;;;;;;;;;;5017251;28;20279;-73
2023/01/23 14:46:37;;;;;;;327.85;82.20;;;;;;;;;;5028044;28;20230;-73
2023/01/23 14:49:10;;;;;;;318.40;79.88;;;;;;;;;;5036094;28;20207;-73
2023/01/23 14:51:40;;;;;;;322.27;78.72;;;;;;;;;;5030317;28;20310;-74
2023/01/23 14:54:18;;;;;;;346.42;82.45;;;;;;;;;;5027520;28;20246;-73
2023/01/23 14:56:50;;;;;;;331.40;81.32;;;;;;;;;;5033951;28;20576;-74
2023/01/23 14:59:25;;;;;;;329.30;79.60;;;;;;;;;;5035179;28;20203;-76
2023/01/23 15:02:34;;;;;;;315.30;76.30;;;;;;;;;;5026120;28;20242;-74
2023/01/23 15:05:15;;;;;;;326.73;82.50;;;;;;;;;;5005518;28;20644;-74
2023/01/23 15:07:46;;;;;;;315.23;73.55;;;;;;;;;;5009926;28;20235;-74
2023/01/23 15:10:15;;;;;;;326.35;76.65;;;;;;;;;;5024529;28;20199;-74
2023/01/23 15:12:50;;;;;;;319.30;76.45;;;;;;;;;;5034758;28;20214;-74
2023/01/23 15:15:19;;;;;;;330.55;75.32;;;;;;;;;;5035111;28;20208;-74
2023/01/23 15:17:47;;;;;;;351.50;90.10;;;;;;;;;;5033313;28;20211;-74
2023/01/23 15:20:40;;;;;;;328.35;80.22;;;;;;;;;;5034709;28;20214;-74
2023/01/23 15:23:30;;;;;;;331.73;79.15;;;;;;;;;;5010241;28;20274;-73
2023/01/23 15:26:25;;;;;;;330.05;80.10;;;;;;;;;;5029416;28;20212;-74
2023/01/23 15:28:56;;;;;;;330.50;78.55;;;;;;;;;;5034384;28;20224;-74
2023/01/23 15:31:25;;;;;;;329.38;80.22;;;;;;;;;;5035898;28;21156;-74
2023/01/23 15:33:55;;;;;;;327.98;77.30;;;;;;;;;;5037330;28;20599;-74
2023/01/23 15:36:34;;;;;;;330.30;79.82;;;;;;;;;;5035708;28;20585;-74
2023/01/23 15:39:08;;;;;;;327.55;78.40;;;;;;;;;;5033498;28;20565;-74
2023/01/23 15:41:58;;;;;;;333.17;80.55;;;;;;;;;;5034565;28;20219;-74
2023/01/23 15:44:38;;;;;;;329.45;80.18;;;;;;;;;;5033378;28;20630;-74
2023/01/23 15:47:50;;;;;;;319.48;75.97;;;;;;;;;;5032517;28;20330;-74
2023/01/23 15:50:37;;;;;;;318.48;77.15;;;;;;;;;;4952185;29;20217;-74
2023/01/23 15:53:17;;;;;;;357.40;87.88;;;;;;;;;;5033728;28;20223;-72
2023/01/23 15:55:46;;;;;;;343.63;84.03;;;;;;;;;;5027866;28;20370;-74
2023/01/23 15:58:16;;;;;;;350.33;89.93;;;;;;;;;;5034332;28;20234;-73
2023/01/23 16:00:52;;;;;;;317.13;79.63;;;;;;;;;;5028751;28;20204;-73
2023/01/23 16:03:22;;;;;;;323.10;80.28;;;;;;;;;;5035594;28;20290;-74
2023/01/23 16:06:02;;;;;;;317.10;77.60;;;;;;;;;;5033065;28;20207;-73
2023/01/23 16:08:33;;;;;;;316.75;79.88;;;;;;;;;;5014590;28;20633;-75
2023/01/23 16:11:01;;;;;;;320.88;86.57;;;;;;;;;;5023348;28;20215;-76
2023/01/23 16:13:29;;;;;;;310.35;75.82;;;;;;;;;;5019916;28;20207;-73
2023/01/23 16:15:58;;;;;;;314.05;78.25;;;;;;;;;;5033448;28;20243;-74
2023/01/23 16:18:36;;;;;;;301.90;73.15;;;;;;;;;;5034138;28;20238;-75
2023/01/23 16:21:05;;;;;;;308.95;74.22;;;;;;;;;;5023437;28;20196;-74
2023/01/23 16:23:33;;;;;;;346.10;81.55;;;;;;;;;;5033581;28;20215;-75
2023/01/23 16:26:02;;;;;;;352.40;86.60;;;;;;;;;;5033731;28;20243;-75
2023/01/23 16:28:32;;;;;;;350.52;88.65;;;;;;;;;;5032629;28;20499;-75
2023/01/23 16:31:03;;;;;;;342.00;82.57;;;;;;;;;;5020991;28;20274;-75
2023/01/23 16:33:32;;;;;;;335.88;84.57;;;;;;;;;;5013834;28;20488;-74
2023/01/23 16:36:05;;;;;;;341.48;85.47;;;;;;;;;;5013572;28;20592;-76
2023/01/23 16:38:34;;;;;;;331.33;81.10;;;;;;;;;;5029823;28;20204;-75
2023/01/23 16:41:04;;;;;;;336.23;83.88;;;;;;;;;;5033472;28;20207;-72
2023/01/23 16:43:32;;;;;;;334.58;83.57;;;;;;;;;;5032052;28;20592;-73
2023/01/23 16:46:01;;;;;;;339.73;82.05;;;;;;;;;;5034469;28;20212;-73
2023/01/23 16:48:30;;;;;;;332.60;82.63;;;;;;;;;;5034200;28;20223;-75
2023/01/23 16:50:59;;;;;;;338.45;83.20;;;;;;;;;;5033867;28;20627;-74
2023/01/23 16:53:42;;;;;;;334.90;85.22;;;;;;;;;;5034771;28;20557;-74
2023/01/23 16:56:17;;;;;;;335.20;82.93;;;;;;;;;;5033556;28;20301;-74
2023/01/23 16:58:48;;;;;;;335.67;82.72;;;;;;;;;;5033486;28;20290;-74
2023/01/23 17:01:16;;;;;;;328.48;78.75;;;;;;;;;;5028521;28;20592;-74
2023/01/23 17:03:46;;;;;;;327.73;78.18;;;;;;;;;;5014619;28;20204;-74
2023/01/23 17:06:17;;;;;;;327.50;78.80;;;;;;;;;;5024146;28;20203;-74
2023/01/23 17:08:44;;;;;;;327.60;82.38;;;;;;;;;;5032784;28;20310;-74
2023/01/23 17:11:20;;;;;;;330.20;79.00;;;;;;;;;;5027171;28;20270;-74
2023/01/23 17:13:54;;;;;;;334.17;81.20;;;;;;;;;;5024612;28;20647;-74
2023/01/23 17:16:40;;;;;;;339.83;82.95;;;;;;;;;;5031764;28;20261;-74
2023/01/23 17:19:16;;;;;;;334.67;80.30;;;;;;;;;;5031909;28;20206;-73
2023/01/23 17:21:46;;;;;;;338.15;82.03;;;;;;;;;;5031784;28;20760;-74
2023/01/23 17:24:16;;;;;;;333.58;82.57;;;;;;;;;;5025215;28;20203;-74
2023/01/23 17:26:45;;;;;;;342.55;83.30;;;;;;;;;;5032602;28;20207;-74
2023/01/23 17:29:23;;;;;;;338.95;81.78;;;;;;;;;;5032069;28;20223;-74
2023/01/23 17:31:51;;;;;;;343.00;85.82;;;;;;;;;;5030926;28;20317;-74
2023/01/23 17:34:23;;;;;;;336.05;78.25;;;;;;;;;;5032219;28;20632;-74
2023/01/23 17:36:51;;;;;;;330.88;79.70;;;;;;;;;;5034083;28;20257;-73
2023/01/23 17:39:19;;;;;;;345.65;83.80;;;;;;;;;;5032896;28;20231;-74
2023/01/23 17:41:50;;;;;;;337.77;81.65;;;;;;;;;;5021405;28;20216;-74
2023/01/23 17:44:19;;;;;;;341.02;81.25;;;;;;;;;;5013715;28;20280;-74
2023/01/23 17:46:47;;;;;;;340.08;83.88;;;;;;;;;;5014672;28;20536;-73
2023/01/23 17:49:27;;;;;;;349.35;87.35;;;;;;;;;;5017154;28;20228;-73
2023/01/23 17:52:05;;;;;;;350.13;84.00;;;;;;;;;;5031507;28;20242;-74
2023/01/23 17:54:37;;;;;;;341.73;86.57;;;;;;;;;;5027162;28;20195;-74
2023/01/23 17:57:06;;;;;;;345.63;85.82;;;;;;;;;;5022988;28;20200;-74
2023/01/23 17:59:41;;;;;;;343.15;81.93;;;;;;;;;;5031442;28;20196;-74
2023/01/23 18:02:24;;;;;;;352.17;87.13;;;;;;;;;;5028836;28;20254;-73
2023/01/23 18:04:53;;;;;;;349.50;86.20;;;;;;;;;;5028536;28;20196;-74
2023/01/23 18:07:24;;;;;;;343.10;82.65;;;;;;;;;;5036268;28;20270;-72
2023/01/23 18:10:01;;;;;;;343.52;84.65;;;;;;;;;;5035777;28;20196;-73
2023/01/23 18:12:32;;;;;;;341.33;84.32;;;;;;;;;;5036821;28;20561;-73
2023/01/23 18:15:27;;;;;;;336.42;82.22;;;;;;;;;;5037094;28;20287;-73
2023/01/23 18:18:01;;;;;;;333.38;80.78;;;;;;;;;;5032172;28;20196;-72
2023/01/23 18:20:43;;;;;;;351.15;83.07;;;;;;;;;;5031624;28;20211;-73
2023/01/23 18:23:30;;;;;;;342.05;82.15;;;;;;;;;;5033727;28;20218;-73
2023/01/23 18:26:25;;;;;;;349.55;86.03;;;;;;;;;;5031512;28;20245;-73
2023/01/23 18:29:02;;;;;;;339.55;81.60;;;;;;;;;;5028606;28;20251;-74
2023/01/23 18:31:33;;;;;;;343.27;86.80;;;;;;;;;;5027684;28;20298;-73
2023/01/23 18:34:18;;;;;;;345.55;85.82;;;;;;;;;;5035518;28;20203;-74
2023/01/23 18:36:57;;;;;;;348.27;84.20;;;;;;;;;;5032995;28;20295;-73
2023/01/23 18:39:34;;;;;;;333.98;80.15;;;;;;;;;;5034913;28;20210;-73
2023/01/23 18:42:28;;;;;;;341.20;82.05;;;;;;;;;;5030325;28;20230;-74
2023/01/23 18:45:05;;;;;;;339.63;79.45;;;;;;;;;;5032865;28;20226;-74
2023/01/23 18:47:36;;;;;;;336.35;80.25;;;;;;;;;;5025544;28;20265;-73
2023/01/23 18:50:09;;;;;;;341.45;81.70;;;;;;;;;;5036378;28;20206;-73
2023/01/23 18:52:44;;;;;;;341.92;83.85;;;;;;;;;;5038191;28;20265;-73
2023/01/23 18:55:21;;;;;;;339.45;80.80;;;;;;;;;;5036325;28;20283;-73
2023/01/23 18:58:14;;;;;;;337.25;84.13;;;;;;;;;;5030191;28;20218;-73
2023/01/23 19:00:45;;;;;;;338.85;79.90;;;;;;;;;;5023128;28;20724;-73
2023/01/23 19:03:14;;;;;;;341.55;82.80;;;;;;;;;;5033769;28;20244;-74
2023/01/23 19:06:00;;;;;;;346.27;87.43;;;;;;;;;;5030252;28;20207;-73
2023/01/23 19:08:31;;;;;;;331.65;78.70;;;;;;;;;;5033724;28;20726;-73
2023/01/23 19:11:09;;;;;;;344.83;82.32;;;;;;;;;;5030820;28;20191;-73